createdAt,value
2019-02-27T00:00:43.767Z,5.30
2019-02-27T00:03:11.238Z,5.20
2019-02-27T00:05:41.817Z,5.20
2019-02-27T00:08:10.451Z,5.30
2019-02-27T00:10:39.832Z,5.40
2019-02-27T00:13:08.722Z,5.40
2019-02-27T00:15:37.946Z,5.50
2019-02-27T00:18:07.385Z,5.50
2019-02-27T00:20:37.077Z,5.60
2019-02-27T00:23:06.461Z,5.60
2019-02-27T00:25:36.101Z,5.50
2019-02-27T00:28:05.649Z,5.50
2019-02-27T00:30:37.954Z,5.60
2019-02-27T00:33:04.857Z,5.50
2019-02-27T00:35:33.693Z,5.60
2019-02-27T00:38:02.497Z,5.70
2019-02-27T00:40:31.349Z,5.70
2019-02-27T00:43:00.080Z,5.70
2019-02-27T00:45:28.849Z,5.70
2019-02-27T00:47:57.658Z,5.70
2019-02-27T00:50:26.423Z,5.70
2019-02-27T00:52:55.150Z,5.70
2019-02-27T00:55:23.915Z,5.70
2019-02-27T00:57:54.443Z,5.70
2019-02-27T01:00:23.216Z,5.60
2019-02-27T01:02:53.488Z,5.60
2019-02-27T01:05:22.464Z,5.50
2019-02-27T01:07:53.992Z,5.60
2019-02-27T01:10:21.678Z,5.60
2019-02-27T01:12:51.544Z,5.70
2019-02-27T01:15:20.274Z,5.70
2019-02-27T01:17:49.033Z,5.70
2019-02-27T01:20:17.775Z,5.70
2019-02-27T01:22:46.601Z,5.80
2019-02-27T01:25:15.932Z,5.80
2019-02-27T01:27:44.690Z,5.80
2019-02-27T01:30:17.642Z,5.90
2019-02-27T01:32:46.538Z,5.90
2019-02-27T01:35:18.749Z,5.90
2019-02-27T01:37:45.774Z,5.80
2019-02-27T01:40:18.027Z,5.90
2019-02-27T01:42:45.981Z,5.80
2019-02-27T01:45:20.617Z,5.80
2019-02-27T01:47:49.477Z,5.70
2019-02-27T01:50:23.905Z,5.70
2019-02-27T01:52:52.711Z,5.70
2019-02-27T01:55:22.429Z,5.70
2019-02-27T01:57:51.456Z,5.70
2019-02-27T02:00:23.028Z,5.70
2019-02-27T02:02:50.801Z,5.60
2019-02-27T02:05:19.665Z,5.60
2019-02-27T02:07:48.864Z,5.50
2019-02-27T02:10:17.819Z,5.50
2019-02-27T02:12:49.818Z,5.40
2019-02-27T02:15:27.918Z,5.40
2019-02-27T02:18:08.189Z,5.30
2019-02-27T02:20:45.605Z,5.20
2019-02-27T02:23:29.536Z,5.10
2019-02-27T02:26:27.950Z,5.00
2019-02-27T02:29:14.593Z,5.00
2019-02-27T02:32:01.418Z,4.90
2019-02-27T02:34:51.217Z,4.70
2019-02-27T02:37:37.766Z,4.60
2019-02-27T02:40:16.214Z,4.50
2019-02-27T02:42:59.070Z,4.50
2019-02-27T02:45:35.726Z,4.40
2019-02-27T02:48:22.503Z,4.30
2019-02-27T02:51:14.074Z,4.30
2019-02-27T02:54:00.412Z,4.20
2019-02-27T02:56:36.237Z,4.20
2019-02-27T02:59:41.557Z,4.10
2019-02-27T03:02:16.159Z,4.00
2019-02-27T03:05:13.775Z,4.00
2019-02-27T03:07:50.944Z,4.00
2019-02-27T03:10:42.598Z,4.00
2019-02-27T03:13:16.598Z,4.00
2019-02-27T03:15:57.042Z,3.90
2019-02-27T03:18:41.511Z,3.80
2019-02-27T03:21:28.571Z,3.70
2019-02-27T03:24:00.853Z,3.70
2019-02-27T03:26:53.040Z,3.70
2019-02-27T03:29:29.420Z,3.60
2019-02-27T03:32:28.527Z,3.50
2019-02-27T03:35:06.096Z,3.50
2019-02-27T03:37:37.913Z,3.50
2019-02-27T03:40:27.854Z,3.40
2019-02-27T03:42:59.526Z,3.40
2019-02-27T03:45:51.940Z,3.30
2019-02-27T03:48:27.746Z,3.30
2019-02-27T03:51:16.683Z,3.30
2019-02-27T03:53:54.139Z,3.30
2019-02-27T03:56:51.506Z,3.30
2019-02-27T03:59:41.929Z,3.30
2019-02-27T04:02:32.827Z,3.20
2019-02-27T04:05:16.558Z,3.10
2019-02-27T04:08:06.821Z,3.00
2019-02-27T04:10:32.157Z,2.90
2019-02-27T04:13:01.117Z,2.70
2019-02-27T04:15:29.952Z,2.70
2019-02-27T04:17:57.498Z,2.70
2019-02-27T04:20:26.313Z,2.80
2019-02-27T04:22:55.081Z,2.70
2019-02-27T04:25:23.802Z,2.80
2019-02-27T04:27:55.433Z,2.80
2019-02-27T04:30:23.009Z,2.80
2019-02-27T04:32:51.772Z,2.70
2019-02-27T04:35:20.510Z,2.60
2019-02-27T04:37:49.320Z,2.50
2019-02-27T04:40:18.052Z,2.30
2019-02-27T04:42:46.886Z,2.40
2019-02-27T04:45:15.650Z,2.40
2019-02-27T04:47:44.392Z,2.40
2019-02-27T04:50:13.144Z,2.40
2019-02-27T04:52:41.894Z,2.40
2019-02-27T04:55:13.066Z,2.30
2019-02-27T04:57:41.109Z,2.30
2019-02-27T05:00:11.170Z,2.30
2019-02-27T05:02:40.054Z,2.40
2019-02-27T05:05:09.406Z,2.40
2019-02-27T05:07:38.142Z,2.40
2019-02-27T05:10:08.854Z,2.40
2019-02-27T05:12:37.620Z,2.40
2019-02-27T05:15:08.493Z,2.50
2019-02-27T05:17:37.249Z,2.40
2019-02-27T05:20:11.675Z,2.40
2019-02-27T05:22:38.606Z,2.40
2019-02-27T05:25:07.506Z,2.30
2019-02-27T05:27:36.269Z,2.20
2019-02-27T05:30:11.999Z,2.20
2019-02-27T05:32:38.286Z,2.20
2019-02-27T05:35:07.323Z,2.20
2019-02-27T05:37:38.647Z,2.20
2019-02-27T05:40:09.330Z,2.30
2019-02-27T05:42:39.061Z,2.40
2019-02-27T05:45:11.234Z,2.40
2019-02-27T05:47:44.733Z,2.40
2019-02-27T05:50:12.235Z,2.40
2019-02-27T05:52:41.109Z,2.40
2019-02-27T05:55:09.841Z,2.50
2019-02-27T05:57:38.928Z,2.50
2019-02-27T06:00:12.973Z,2.50
2019-02-27T06:02:41.966Z,2.60
2019-02-27T06:05:12.210Z,2.50
2019-02-27T06:07:40.960Z,2.50
2019-02-27T06:10:12.760Z,2.50
2019-02-27T06:12:41.604Z,2.40
2019-02-27T06:15:17.314Z,2.40
2019-02-27T06:17:48.833Z,2.40
2019-02-27T06:20:16.614Z,2.40
2019-02-27T06:22:45.417Z,2.40
2019-02-27T06:25:21.907Z,2.20
2019-02-27T06:27:48.605Z,2.20
2019-02-27T06:30:21.425Z,2.20
2019-02-27T06:32:50.152Z,2.30
2019-02-27T06:35:18.963Z,2.30
2019-02-27T06:37:50.377Z,2.40
2019-02-27T06:40:18.566Z,2.50
2019-02-27T06:42:47.419Z,2.50
2019-02-27T06:45:19.161Z,2.60
2019-02-27T06:47:50.814Z,2.60
2019-02-27T06:50:19.688Z,2.60
2019-02-27T06:52:48.481Z,2.70
2019-02-27T06:55:17.354Z,2.80
2019-02-27T06:57:46.093Z,2.80
2019-02-27T07:00:23.130Z,2.80
2019-02-27T07:02:55.141Z,2.90
2019-02-27T07:05:22.269Z,2.90
2019-02-27T07:07:51.038Z,3.00
2019-02-27T07:10:20.653Z,3.10
2019-02-27T07:12:54.284Z,3.20
2019-02-27T07:15:21.224Z,3.30
2019-02-27T07:17:49.990Z,3.40
2019-02-27T07:20:23.923Z,3.40
2019-02-27T07:22:49.154Z,3.50
2019-02-27T07:25:18.880Z,3.60
2019-02-27T07:27:47.645Z,3.70
2019-02-27T07:30:17.780Z,3.80
2019-02-27T07:32:46.530Z,3.80
2019-02-27T07:35:16.064Z,3.90
2019-02-27T07:37:47.453Z,4.00
2019-02-27T07:40:19.613Z,4.10
2019-02-27T07:42:48.485Z,4.20
2019-02-27T07:45:18.748Z,4.30
2019-02-27T07:47:47.504Z,4.50
2019-02-27T07:50:18.224Z,4.60
2019-02-27T07:52:47.021Z,4.70
2019-02-27T07:55:21.786Z,4.80
2019-02-27T07:57:48.306Z,4.90
2019-02-27T08:00:21.475Z,5.00
2019-02-27T08:02:50.219Z,5.10
2019-02-27T08:05:18.983Z,5.20
2019-02-27T08:07:49.043Z,5.40
2019-02-27T08:10:22.589Z,5.50
2019-02-27T08:12:55.612Z,5.70
2019-02-27T08:15:23.047Z,5.90
2019-02-27T08:17:51.794Z,6.10
2019-02-27T08:20:21.260Z,6.30
2019-02-27T08:22:50.049Z,6.30
2019-02-27T08:25:19.325Z,6.40
2019-02-27T08:27:48.053Z,6.50
2019-02-27T08:30:26.737Z,6.50
2019-02-27T08:32:55.582Z,6.60
2019-02-27T08:35:24.329Z,6.80
2019-02-27T08:38:02.200Z,7.00
2019-02-27T08:40:25.937Z,7.10
2019-02-27T08:42:54.694Z,7.30
2019-02-27T08:45:26.835Z,7.40
2019-02-27T08:47:55.730Z,7.40
2019-02-27T08:50:25.157Z,7.50
2019-02-27T08:52:53.918Z,7.50
2019-02-27T08:55:23.058Z,7.60
2019-02-27T08:57:55.815Z,7.70
2019-02-27T09:00:32.987Z,7.80
2019-02-27T09:05:32.387Z,8.20
2019-02-27T09:08:01.102Z,8.50
2019-02-27T09:10:30.775Z,8.50
2019-02-27T09:13:05.339Z,8.50
2019-02-27T09:15:32.132Z,8.60
2019-02-27T09:18:01.929Z,8.60
2019-02-27T09:20:31.333Z,8.70
2019-02-27T09:23:00.070Z,8.90
2019-02-27T09:25:28.833Z,9.20
2019-02-27T09:27:57.633Z,9.20
2019-02-27T09:30:29.300Z,9.20
2019-02-27T09:32:57.175Z,9.20
2019-02-27T09:35:25.998Z,9.30
2019-02-27T09:37:54.738Z,9.40
2019-02-27T09:40:24.865Z,9.30
2019-02-27T09:42:53.909Z,9.50
2019-02-27T09:45:31.208Z,9.70
2019-02-27T09:48:00.820Z,9.70
2019-02-27T09:50:32.153Z,9.80
2019-02-27T09:53:03.649Z,10.00
2019-02-27T09:55:32.864Z,10.10
2019-02-27T09:58:01.942Z,10.20
2019-02-27T10:00:38.291Z,10.30
2019-02-27T10:03:07.585Z,10.40
2019-02-27T10:05:37.427Z,10.40
2019-02-27T10:08:07.675Z,10.70
2019-02-27T10:10:36.712Z,10.70
2019-02-27T10:13:05.476Z,10.80
2019-02-27T10:15:34.537Z,10.80
2019-02-27T10:18:03.441Z,10.70
2019-02-27T10:20:37.018Z,10.60
2019-02-27T10:23:02.626Z,10.80
2019-02-27T10:25:31.556Z,10.80
2019-02-27T10:28:03.409Z,10.90
2019-02-27T10:30:30.766Z,11.00
2019-02-27T10:32:59.555Z,11.20
2019-02-27T10:35:29.517Z,11.40
2019-02-27T10:37:59.017Z,11.60
2019-02-27T10:40:28.133Z,11.60
2019-02-27T10:42:57.166Z,11.60
2019-02-27T10:45:26.093Z,11.70
2019-02-27T10:47:54.906Z,11.80
2019-02-27T10:50:23.746Z,12.00
2019-02-27T10:52:52.556Z,11.90
2019-02-27T10:55:22.924Z,11.90
2019-02-27T10:57:52.058Z,11.80
2019-02-27T11:00:34.162Z,12.00
2019-02-27T11:03:03.174Z,12.20
2019-02-27T11:05:34.588Z,12.10
2019-02-27T11:08:03.475Z,12.10
2019-02-27T11:10:32.310Z,12.00
2019-02-27T11:13:05.454Z,12.00
2019-02-27T11:15:31.631Z,11.90
2019-02-27T11:18:04.385Z,12.00
2019-02-27T11:20:30.916Z,12.10
2019-02-27T11:22:59.745Z,12.10
2019-02-27T11:25:32.744Z,12.20
2019-02-27T11:28:01.557Z,12.10
2019-02-27T11:30:38.474Z,12.20
2019-02-27T11:33:07.529Z,12.20
2019-02-27T11:35:36.262Z,12.30
2019-02-27T11:38:05.096Z,12.50
2019-02-27T11:40:33.832Z,12.40
2019-02-27T11:43:06.681Z,12.30
2019-02-27T11:45:32.987Z,12.40
2019-02-27T11:48:01.795Z,12.30
2019-02-27T11:50:30.521Z,12.40
2019-02-27T11:53:02.715Z,12.50
2019-02-27T11:55:32.393Z,12.50
2019-02-27T11:58:04.619Z,12.50
2019-02-27T12:00:31.911Z,12.50
2019-02-27T12:03:00.829Z,12.40
2019-02-27T12:05:33.695Z,12.50
2019-02-27T12:08:00.168Z,12.60
2019-02-27T12:10:31.174Z,12.60
2019-02-27T12:13:01.404Z,12.50
2019-02-27T12:15:30.766Z,12.60
2019-02-27T12:18:01.836Z,12.80
2019-02-27T12:20:30.077Z,12.70
2019-02-27T12:22:58.802Z,12.60
2019-02-27T12:25:30.030Z,12.40
2019-02-27T12:27:58.049Z,12.50
2019-02-27T12:30:28.517Z,12.70
2019-02-27T12:32:57.380Z,12.90
2019-02-27T12:35:36.785Z,13.00
2019-02-27T12:38:08.066Z,13.10
2019-02-27T12:40:36.404Z,13.20
2019-02-27T12:43:05.245Z,13.10
2019-02-27T12:45:34.015Z,13.10
2019-02-27T12:48:02.746Z,13.20
2019-02-27T12:50:31.720Z,13.30
2019-02-27T12:53:00.566Z,13.40
2019-02-27T12:55:29.607Z,13.40
2019-02-27T12:58:01.437Z,13.30
2019-02-27T13:00:31.345Z,13.20
2019-02-27T13:03:00.120Z,13.20
2019-02-27T13:05:29.457Z,13.20
2019-02-27T13:07:58.437Z,13.10
2019-02-27T13:10:32.972Z,13.30
2019-02-27T13:12:58.409Z,13.40
2019-02-27T13:15:30.526Z,13.50
2019-02-27T13:17:59.313Z,13.60
2019-02-27T13:20:29.252Z,13.60
2019-02-27T13:22:58.077Z,13.60
2019-02-27T13:25:27.109Z,13.80
2019-02-27T13:27:55.842Z,13.90
2019-02-27T13:30:25.708Z,14.30
2019-02-27T13:32:54.545Z,14.30
2019-02-27T13:35:23.991Z,14.40
2019-02-27T13:37:53.001Z,14.30
2019-02-27T13:40:24.009Z,14.30
2019-02-27T13:42:53.858Z,14.30
2019-02-27T13:45:26.864Z,14.50
2019-02-27T13:47:55.613Z,14.50
2019-02-27T13:50:26.727Z,14.60
2019-02-27T13:52:54.781Z,14.50
2019-02-27T13:55:24.673Z,14.30
2019-02-27T13:57:58.886Z,14.20
2019-02-27T14:00:34.214Z,14.20
2019-02-27T14:03:02.969Z,14.10
2019-02-27T14:05:35.190Z,14.10
2019-02-27T14:08:02.669Z,14.20
2019-02-27T14:10:32.909Z,14.30
2019-02-27T14:13:01.697Z,14.30
2019-02-27T14:15:31.632Z,14.30
2019-02-27T14:18:00.748Z,14.40
2019-02-27T14:20:29.555Z,14.20
2019-02-27T14:22:58.373Z,14.00
2019-02-27T14:25:33.220Z,14.10
2019-02-27T14:28:01.687Z,14.00
2019-02-27T14:30:39.006Z,14.00
2019-02-27T14:33:07.805Z,14.10
2019-02-27T14:35:36.701Z,14.00
2019-02-27T14:38:05.519Z,14.00
2019-02-27T14:40:37.695Z,13.90
2019-02-27T14:43:05.472Z,13.90
2019-02-27T14:45:34.202Z,13.80
2019-02-27T14:48:03.057Z,13.90
2019-02-27T14:50:34.536Z,13.90
2019-02-27T14:53:02.289Z,13.90
2019-02-27T14:55:31.017Z,14.00
2019-02-27T14:57:59.877Z,14.00
2019-02-27T15:00:33.702Z,14.00
2019-02-27T15:03:03.045Z,14.00
2019-02-27T15:05:31.877Z,13.90
2019-02-27T15:08:01.766Z,13.90
2019-02-27T15:10:30.597Z,13.90
2019-02-27T15:12:59.369Z,14.00
2019-02-27T15:15:31.926Z,14.00
2019-02-27T15:18:01.106Z,14.00
2019-02-27T15:20:30.569Z,14.00
2019-02-27T15:22:59.405Z,14.00
2019-02-27T15:25:28.441Z,14.00
2019-02-27T15:27:58.680Z,14.10
2019-02-27T15:30:32.355Z,14.20
2019-02-27T15:33:04.364Z,14.50
2019-02-27T15:35:31.594Z,15.00
2019-02-27T15:38:01.769Z,15.30
2019-02-27T15:40:31.804Z,15.60
2019-02-27T15:43:00.802Z,15.60
2019-02-27T15:45:30.950Z,15.60
2019-02-27T15:48:06.502Z,15.80
2019-02-27T15:50:34.146Z,15.90
2019-02-27T15:53:02.984Z,15.80
2019-02-27T15:55:34.379Z,15.70
2019-02-27T15:58:02.144Z,15.60
2019-02-27T16:00:31.032Z,15.40
2019-02-27T16:02:59.865Z,14.90
2019-02-27T16:05:31.536Z,14.50
2019-02-27T16:07:59.018Z,14.20
2019-02-27T16:10:28.649Z,13.90
2019-02-27T16:13:01.059Z,13.60
2019-02-27T16:15:27.873Z,13.30
2019-02-27T16:17:56.691Z,13.10
2019-02-27T16:20:26.626Z,12.90
2019-02-27T16:22:55.406Z,12.70
2019-02-27T16:25:25.288Z,12.60
2019-02-27T16:27:54.129Z,12.50
2019-02-27T16:30:32.611Z,12.30
2019-02-27T16:33:03.338Z,12.30
2019-02-27T16:35:32.130Z,12.10
2019-02-27T16:38:00.995Z,12.00
2019-02-27T16:40:31.304Z,11.80
2019-02-27T16:43:01.271Z,11.70
2019-02-27T16:45:35.756Z,11.60
2019-02-27T16:48:03.137Z,11.50
2019-02-27T16:50:32.015Z,11.40
2019-02-27T16:53:00.788Z,11.30
2019-02-27T16:55:30.020Z,11.00
2019-02-27T16:58:01.803Z,10.80
2019-02-27T17:00:35.830Z,10.70
2019-02-27T17:03:04.777Z,10.50
2019-02-27T17:05:33.598Z,10.40
2019-02-27T17:08:02.838Z,10.20
2019-02-27T17:10:36.807Z,10.10
2019-02-27T17:13:05.709Z,9.90
2019-02-27T17:15:35.956Z,9.80
2019-02-27T17:18:05.213Z,9.70
2019-02-27T17:20:34.222Z,9.50
2019-02-27T17:23:07.671Z,9.40
2019-02-27T17:25:33.614Z,9.40
2019-02-27T17:28:05.214Z,9.30
2019-02-27T17:30:37.690Z,9.20
2019-02-27T17:33:05.930Z,9.10
2019-02-27T17:35:34.673Z,9.10
2019-02-27T17:38:03.505Z,9.00
2019-02-27T17:40:36.631Z,8.90
2019-02-27T17:43:02.716Z,8.80
2019-02-27T17:45:31.505Z,8.70
2019-02-27T17:48:00.320Z,8.70
2019-02-27T17:50:31.730Z,8.60
2019-02-27T17:53:01.334Z,8.60
2019-02-27T17:55:31.705Z,8.50
2019-02-27T17:58:00.398Z,8.40
2019-02-27T18:00:40.679Z,8.30
2019-02-27T18:03:09.441Z,8.30
2019-02-27T18:05:38.247Z,8.30
2019-02-27T18:08:07.041Z,8.20
2019-02-27T18:10:37.544Z,8.20
2019-02-27T18:13:06.165Z,8.10
2019-02-27T18:15:35.226Z,8.10
2019-02-27T18:18:07.498Z,8.00
2019-02-27T18:20:34.554Z,7.90
2019-02-27T18:23:03.293Z,7.90
2019-02-27T18:25:32.124Z,7.80
2019-02-27T18:28:00.861Z,7.70
2019-02-27T18:30:29.637Z,7.70
2019-02-27T18:32:58.373Z,7.60
2019-02-27T18:35:29.619Z,7.50
2019-02-27T18:37:57.795Z,7.50
2019-02-27T18:40:28.445Z,7.40
2019-02-27T18:42:57.187Z,7.30
2019-02-27T18:45:28.090Z,7.20
2019-02-27T18:47:58.704Z,7.10
2019-02-27T18:50:27.993Z,7.00
2019-02-27T18:52:56.973Z,7.00
2019-02-27T18:55:30.715Z,7.00
2019-02-27T18:57:57.341Z,7.00
2019-02-27T19:00:28.940Z,7.00
2019-02-27T19:03:02.842Z,7.00
2019-02-27T19:05:31.577Z,7.00
2019-02-27T19:08:00.417Z,6.90
2019-02-27T19:10:29.676Z,6.90
2019-02-27T19:13:00.008Z,6.90
2019-02-27T19:15:29.025Z,6.80
2019-02-27T19:17:58.021Z,6.70
2019-02-27T19:20:38.682Z,6.60
2019-02-27T19:23:07.581Z,6.60
2019-02-27T19:25:36.523Z,6.50
2019-02-27T19:28:05.933Z,6.50
2019-02-27T19:30:34.876Z,6.50
2019-02-27T19:33:03.933Z,6.50
2019-02-27T19:35:33.307Z,6.50
2019-02-27T19:38:02.041Z,6.50
2019-02-27T19:40:31.353Z,6.40
2019-02-27T19:43:05.324Z,6.40
2019-02-27T19:45:35.900Z,6.40
2019-02-27T19:48:05.101Z,6.30
2019-02-27T19:50:33.991Z,6.30
2019-02-27T19:53:06.574Z,6.20
2019-02-27T19:55:35.054Z,6.20
2019-02-27T19:58:04.293Z,6.20
2019-02-27T20:00:35.724Z,6.10
2019-02-27T20:03:07.165Z,6.10
2019-02-27T20:05:36.442Z,6.00
2019-02-27T20:08:09.860Z,5.90
2019-02-27T20:10:36.710Z,5.80
2019-02-27T20:13:07.163Z,5.80
2019-02-27T20:15:36.202Z,5.80
2019-02-27T20:18:08.186Z,5.80
2019-02-27T20:20:40.102Z,5.80
2019-02-27T20:23:07.479Z,5.80
2019-02-27T20:25:37.008Z,5.80
2019-02-27T20:28:06.394Z,5.70
2019-02-27T20:30:35.466Z,5.70
2019-02-27T20:33:04.614Z,5.70
2019-02-27T20:35:35.027Z,5.70
2019-02-27T20:38:04.224Z,5.60
2019-02-27T20:40:34.236Z,5.60
2019-02-27T20:43:03.702Z,5.50
2019-02-27T20:45:32.438Z,5.50
2019-02-27T20:48:02.066Z,5.40
2019-02-27T20:50:39.394Z,5.40
2019-02-27T20:53:10.057Z,5.30
2019-02-27T20:55:41.999Z,5.30
2019-02-27T20:58:10.461Z,5.20
2019-02-27T21:00:39.392Z,5.20
2019-02-27T21:03:08.323Z,5.10
2019-02-27T21:05:37.349Z,5.10
2019-02-27T21:08:06.195Z,5.10
2019-02-27T21:10:35.627Z,5.10
2019-02-27T21:13:04.389Z,5.20
2019-02-27T21:15:33.677Z,5.20
2019-02-27T21:18:02.471Z,5.20
2019-02-27T21:20:33.086Z,5.20
2019-02-27T21:23:01.921Z,5.10
2019-02-27T21:25:30.661Z,5.10
2019-02-27T21:27:59.429Z,5.00
2019-02-27T21:30:28.291Z,5.00
2019-02-27T21:32:57.029Z,5.00
2019-02-27T21:35:28.665Z,5.00
2019-02-27T21:37:56.266Z,5.00
2019-02-27T21:40:25.001Z,5.10
2019-02-27T21:42:53.830Z,5.10
2019-02-27T21:45:23.467Z,5.10
2019-02-27T21:47:52.942Z,5.10
2019-02-27T21:50:25.627Z,5.10
2019-02-27T21:52:55.662Z,5.10
2019-02-27T21:55:24.893Z,5.10
2019-02-27T21:57:53.649Z,5.10
2019-02-27T22:00:24.942Z,5.10
2019-02-27T22:02:55.182Z,5.10
2019-02-27T22:05:24.083Z,5.00
2019-02-27T22:07:52.906Z,4.90
2019-02-27T22:10:21.643Z,4.90
2019-02-27T22:12:50.485Z,4.80
2019-02-27T22:15:29.489Z,4.80
2019-02-27T22:17:58.420Z,4.70
2019-02-27T22:20:27.358Z,4.70
2019-02-27T22:22:56.180Z,4.60
2019-02-27T22:25:29.789Z,4.60
2019-02-27T22:27:55.394Z,4.60
2019-02-27T22:30:26.085Z,4.60
2019-02-27T22:32:54.881Z,4.50
2019-02-27T22:35:23.647Z,4.50
2019-02-27T22:37:52.769Z,4.50
2019-02-27T22:40:25.053Z,4.40
2019-02-27T22:42:53.857Z,4.40
2019-02-27T22:45:22.641Z,4.30
2019-02-27T22:47:53.844Z,4.20
2019-02-27T22:50:22.164Z,4.00
2019-02-27T22:52:54.654Z,3.90
2019-02-27T22:55:21.773Z,3.90
2019-02-27T22:57:50.580Z,4.00
2019-02-27T23:00:51.318Z,4.00
2019-02-27T23:03:23.785Z,4.00
2019-02-27T23:05:53.064Z,4.00
2019-02-27T23:08:22.995Z,4.00
2019-02-27T23:10:52.468Z,4.00
2019-02-27T23:13:21.257Z,4.00
2019-02-27T23:15:50.097Z,4.00
2019-02-27T23:18:18.831Z,3.90
2019-02-27T23:20:47.658Z,3.90
2019-02-27T23:23:16.385Z,3.90
2019-02-27T23:25:46.501Z,3.90
2019-02-27T23:28:15.525Z,3.90
2019-02-27T23:30:47.044Z,3.90
2019-02-27T23:33:14.665Z,3.90
2019-02-27T23:35:43.392Z,3.90
2019-02-27T23:38:12.240Z,3.90
2019-02-27T23:40:40.998Z,3.90
2019-02-27T23:43:09.766Z,3.90
2019-02-27T23:45:41.358Z,3.90
2019-02-27T23:48:09.033Z,3.90
2019-02-27T23:50:37.861Z,3.90
2019-02-27T23:53:06.697Z,3.90
2019-02-27T23:55:35.498Z,3.80
2019-02-27T23:58:04.324Z,3.80
